TZ-0089 weather

Malagarasi Airport
Malagarasi, Xigoma Region, Tanzania

Public forecast

Using degrees Celsius for public forecast. Weather courtesy of forecast.io.

METAR (pilot weather report)

Report is more than 6 hours old.

Closest report is Kigoma Airport, 62.6 nm (115.9 km) W. Retrieved 2019/05/19 07:00 UTC (9 hours ago):

HTKA 190700Z 00000KT 9999 SCT022 FEW023CB BKN080 24/20 Q1020

TAF (pilot weather forecast)

Forecast is more than 12 hours old.

Closest forecast is Kigoma Airport, 62.6 nm (115.9 km) W. Retrieved 2019/04/07 12:27 UTC (1 month ago):

TAF HTKA 071120Z 0712/0812 12013KT 9999 FEW026 FEW027CB BECMG 0714/0716 00000KT